Crawford, Oklahoma
Current Conditions -  °F | °C
As of 1:53 AM on Tuesday 21 Oct 2014 (Local Time) from KGAG Reporting Station
Haze Haze  
Wind Chill: 59°   Ceiling: Unl
Heat Index: 59°   Visibility: 5mi
Dew Point: 58°   Wind: 6mph
Humidity: 96%   Direction: 120°ESE
Pressure: 30.06"   Gusts: NA
Location:  35.83°N, 99.8°W
Report Text: KGAG 210653Z AUTO 12005KT 5SM BR CLR 15/14 A3006 RMK AO2 SLP160 T01500144
Loading
Personal Weather Stations






























Interactive Weather Map
Tropical Storm Tracking
New forecast layout! Learn more

10-Day Weather Forecast

Advertisements
Track Severe Weather on mobile